createdAt,value
2023-03-12T00:00:41.442Z,99822.38
2023-03-12T00:03:43.699Z,99831.66
2023-03-12T00:06:45.921Z,99841.44
2023-03-12T00:09:48.186Z,99845.91
2023-03-12T00:12:50.466Z,99841.53
2023-03-12T00:15:52.714Z,99833.72
2023-03-12T00:18:55.656Z,99847.56
2023-03-12T00:21:57.911Z,99849.78
2023-03-12T00:25:00.313Z,99858.66
2023-03-12T00:28:02.577Z,99861.22
2023-03-12T00:31:16.975Z,99871.69
2023-03-12T00:34:19.226Z,99867.75
2023-03-12T00:37:22.332Z,99874.81
2023-03-12T00:40:24.609Z,99879.41
2023-03-12T00:43:26.880Z,99882.03
2023-03-12T00:46:29.251Z,99887.16
2023-03-12T00:49:31.630Z,99890.25
2023-03-12T00:52:33.917Z,99891.19
2023-03-12T00:55:36.258Z,99886.72
2023-03-12T00:58:38.666Z,99897.19
2023-03-12T01:01:41.264Z,99898.06
2023-03-12T01:04:45.986Z,99890.56
2023-03-12T01:07:48.264Z,99893.25
2023-03-12T01:10:50.650Z,99897.78
2023-03-12T01:13:53.096Z,99888.56
2023-03-12T01:16:55.348Z,99888.56
2023-03-12T01:19:57.670Z,99897.38
2023-03-12T01:22:59.924Z,99897.38
2023-03-12T01:26:02.287Z,99895.50
2023-03-12T01:29:04.553Z,99906.91
2023-03-12T01:32:07.202Z,99912.94
2023-03-12T01:35:10.422Z,99913.44
2023-03-12T01:38:14.932Z,99914.06
2023-03-12T01:41:17.605Z,99910.94
2023-03-12T01:44:20.017Z,99916.19
2023-03-12T01:47:23.270Z,99922.34
2023-03-12T01:50:25.754Z,99922.28
2023-03-12T01:53:28.724Z,99925.69
2023-03-12T01:56:33.423Z,99923.13
2023-03-12T01:59:41.111Z,99923.28
2023-03-12T02:02:44.230Z,99932.06
2023-03-12T02:05:56.229Z,99939.00
2023-03-12T02:09:00.733Z,99951.38
2023-03-12T02:12:04.598Z,99957.09
2023-03-12T02:15:07.727Z,99963.97
2023-03-12T02:18:13.887Z,99965.88
2023-03-12T02:21:20.629Z,99962.38
2023-03-12T02:25:03.970Z,99958.16
2023-03-12T02:28:09.620Z,99967.97
2023-03-12T02:31:14.767Z,99969.03
2023-03-12T02:34:17.084Z,99977.34
2023-03-12T02:37:20.221Z,99983.06
2023-03-12T02:40:39.470Z,99993.47
2023-03-12T02:43:46.266Z,99997.13
2023-03-12T02:46:51.667Z,100002.69
2023-03-12T02:49:53.962Z,100002.69
2023-03-12T02:52:56.204Z,100008.03
2023-03-12T02:55:58.576Z,100002.06
2023-03-12T02:59:03.230Z,100009.97
2023-03-12T03:02:07.258Z,100004.28
2023-03-12T03:05:11.232Z,100010.47
2023-03-12T03:08:13.890Z,100017.69
2023-03-12T03:11:16.279Z,100033.25
2023-03-12T03:14:19.499Z,100038.75
2023-03-12T03:17:25.601Z,100036.81
2023-03-12T03:20:28.139Z,100054.19
2023-03-12T03:23:30.668Z,100050.88
2023-03-12T03:26:33.059Z,100052.91
2023-03-12T03:29:35.523Z,100065.13
2023-03-12T03:32:38.661Z,100063.63
2023-03-12T03:35:41.213Z,100070.63
2023-03-12T03:38:49.180Z,100083.03
2023-03-12T03:41:52.265Z,100081.31
2023-03-12T03:44:57.593Z,100085.78
2023-03-12T03:47:59.941Z,100083.88
2023-03-12T03:51:03.215Z,100077.94
2023-03-12T03:54:07.829Z,100089.69
2023-03-12T03:57:10.095Z,100083.66
2023-03-12T04:00:13.231Z,100076.81
2023-03-12T04:03:20.056Z,100076.97
2023-03-12T04:06:22.591Z,100078.16
2023-03-12T04:09:24.989Z,100090.38
2023-03-12T04:12:28.110Z,100097.38
2023-03-12T04:15:30.390Z,100085.09
2023-03-12T04:18:36.049Z,100100.78
2023-03-12T04:21:39.679Z,100116.69
2023-03-12T04:24:42.243Z,100116.13
2023-03-12T04:27:44.704Z,100120.47
2023-03-12T04:30:59.723Z,100125.69
2023-03-12T04:34:03.013Z,100147.31
2023-03-12T04:37:05.460Z,100151.94
2023-03-12T04:40:09.745Z,100156.16
2023-03-12T04:43:12.250Z,100162.06
2023-03-12T04:46:14.756Z,100173.13
2023-03-12T04:49:18.858Z,100176.09
2023-03-12T04:52:21.682Z,100167.53
2023-03-12T04:55:24.128Z,100173.34
2023-03-12T04:58:26.677Z,100170.84
2023-03-12T05:01:32.794Z,100182.47
2023-03-12T05:04:37.553Z,100181.25
2023-03-12T05:07:39.990Z,100187.19
2023-03-12T05:10:45.446Z,100186.00
2023-03-12T05:13:50.402Z,100178.88
2023-03-12T05:16:53.181Z,100177.75
2023-03-12T05:19:55.602Z,100184.00
2023-03-12T05:23:01.011Z,100184.28
2023-03-12T05:26:03.773Z,100192.06
2023-03-12T05:29:06.550Z,100188.72
2023-03-12T05:32:12.534Z,100199.72
2023-03-12T05:35:15.072Z,100187.28
2023-03-12T05:38:19.365Z,100198.56
2023-03-12T05:41:24.356Z,100200.13
2023-03-12T05:44:29.216Z,100201.13
2023-03-12T05:47:31.656Z,100195.56
2023-03-12T05:50:34.123Z,100214.25
2023-03-12T05:53:36.576Z,100217.81
2023-03-12T05:56:39.298Z,100237.19
2023-03-12T05:59:42.619Z,100240.50
2023-03-12T06:02:45.159Z,100244.97
2023-03-12T06:05:48.380Z,100250.09
2023-03-12T06:08:51.799Z,100257.50
2023-03-12T06:11:54.035Z,100261.78
2023-03-12T06:14:57.568Z,100269.47
2023-03-12T06:17:59.740Z,100276.81
2023-03-12T06:21:14.004Z,100284.59
2023-03-12T06:24:16.304Z,100289.81
2023-03-12T06:27:25.201Z,100294.03
2023-03-12T06:30:27.778Z,100297.53
2023-03-12T06:33:30.709Z,100291.41
2023-03-12T06:36:33.099Z,100292.84
2023-03-12T06:39:35.810Z,100294.16
2023-03-12T06:42:38.142Z,100301.66
2023-03-12T06:45:40.483Z,100301.41
2023-03-12T06:48:43.050Z,100310.72
2023-03-12T06:51:45.921Z,100314.00
2023-03-12T06:54:48.314Z,100314.28
2023-03-12T06:57:50.635Z,100319.13
2023-03-12T07:00:58.779Z,100329.09
2023-03-12T07:04:01.216Z,100339.88
2023-03-12T07:07:04.904Z,100338.66
2023-03-12T07:10:07.723Z,100332.13
2023-03-12T07:13:13.625Z,100321.56
2023-03-12T07:16:16.038Z,100340.25
2023-03-12T07:19:19.615Z,100338.22
2023-03-12T07:22:21.996Z,100337.34
2023-03-12T07:25:24.488Z,100348.19
2023-03-12T07:28:29.449Z,100338.22
2023-03-12T07:31:32.179Z,100341.44
2023-03-12T07:34:34.809Z,100323.34
2023-03-12T07:37:40.286Z,100334.41
2023-03-12T07:40:42.853Z,100330.44
2023-03-12T07:43:45.138Z,100332.97
2023-03-12T07:46:47.645Z,100337.94
2023-03-12T07:49:50.476Z,100337.38
2023-03-12T07:52:55.258Z,100345.13
2023-03-12T07:55:57.712Z,100329.09
2023-03-12T07:59:00.362Z,100324.34
2023-03-12T08:02:02.916Z,100332.44
2023-03-12T08:05:06.509Z,100348.88
2023-03-12T08:08:09.245Z,100348.25
2023-03-12T08:11:11.941Z,100341.06
2023-03-12T08:14:14.426Z,100334.94
2023-03-12T08:17:17.380Z,100337.28
2023-03-12T08:20:19.792Z,100344.88
2023-03-12T08:23:22.366Z,100342.94
2023-03-12T08:26:25.000Z,100351.88
2023-03-12T08:29:27.884Z,100348.78
2023-03-12T08:32:30.495Z,100364.50
2023-03-12T08:35:32.944Z,100351.00
2023-03-12T08:38:35.607Z,100350.38
2023-03-12T08:41:38.263Z,100341.03
2023-03-12T08:44:40.648Z,100350.88
2023-03-12T08:47:44.370Z,100353.53
2023-03-12T08:50:46.779Z,100343.09
2023-03-12T08:53:49.139Z,100349.13
2023-03-12T08:56:52.457Z,100354.28
2023-03-12T08:59:54.877Z,100346.09
2023-03-12T09:02:58.464Z,100346.13
2023-03-12T09:06:13.485Z,100337.78
2023-03-12T09:09:16.105Z,100343.59
2023-03-12T09:12:18.472Z,100343.41
2023-03-12T09:15:20.902Z,100352.16
2023-03-12T09:18:23.866Z,100341.50
2023-03-12T09:21:26.522Z,100351.09
2023-03-12T09:24:29.023Z,100348.06
2023-03-12T09:27:31.354Z,100345.72
2023-03-12T09:30:33.983Z,100334.94
2023-03-12T09:33:36.362Z,100347.47
2023-03-12T09:36:38.814Z,100341.31
2023-03-12T09:39:41.221Z,100344.13
2023-03-12T09:42:54.836Z,100354.72
2023-03-12T09:45:57.481Z,100350.25
2023-03-12T09:48:59.787Z,100354.47
2023-03-12T09:52:04.338Z,100344.72
2023-03-12T09:55:19.555Z,100365.69
2023-03-12T09:58:33.579Z,100365.06
2023-03-12T10:01:42.535Z,100361.00
2023-03-12T10:05:00.300Z,100367.38
2023-03-12T10:08:25.306Z,100367.78
2023-03-12T10:11:39.207Z,100376.91
2023-03-12T10:15:03.331Z,100380.34
2023-03-12T10:18:24.411Z,100382.66
2023-03-12T10:21:38.348Z,100389.56
2023-03-12T10:25:02.007Z,100381.81
2023-03-12T10:28:28.113Z,100387.94
2023-03-12T10:31:44.074Z,100399.00
2023-03-12T10:34:53.071Z,100393.97
2023-03-12T10:37:58.676Z,100393.94
2023-03-12T10:41:00.954Z,100393.91
2023-03-12T10:44:07.369Z,100399.03
2023-03-12T10:47:35.318Z,100400.19
2023-03-12T10:50:40.477Z,100400.38
2023-03-12T10:53:45.020Z,100400.19
2023-03-12T10:56:50.820Z,100396.03
2023-03-12T11:00:07.342Z,100397.72
2023-03-12T11:03:28.149Z,100394.06
2023-03-12T11:06:30.707Z,100406.75
2023-03-12T11:09:33.068Z,100391.28
2023-03-12T11:12:37.244Z,100393.94
2023-03-12T11:15:41.551Z,100395.09
2023-03-12T11:19:04.727Z,100400.38
2023-03-12T11:22:11.575Z,100383.59
2023-03-12T11:25:28.581Z,100384.31
2023-03-12T11:28:52.773Z,100390.47
2023-03-12T11:32:06.417Z,100370.19
2023-03-12T11:35:14.569Z,100384.53
2023-03-12T11:38:21.976Z,100382.69
2023-03-12T11:41:36.952Z,100389.16
2023-03-12T11:44:48.237Z,100386.44
2023-03-12T11:48:04.672Z,100381.13
2023-03-12T11:51:25.991Z,100375.31
2023-03-12T11:58:04.412Z,100376.00
2023-03-12T12:01:22.036Z,100375.34
2023-03-12T12:04:48.561Z,100370.59
2023-03-12T12:08:02.838Z,100376.63
2023-03-12T12:11:08.143Z,100372.75
2023-03-12T12:14:16.064Z,100368.69
2023-03-12T12:17:25.889Z,100365.84
2023-03-12T12:20:30.909Z,100361.00
2023-03-12T12:23:59.720Z,100348.28
2023-03-12T12:27:19.806Z,100350.75
2023-03-12T12:30:48.216Z,100345.09
2023-03-12T12:33:56.331Z,100353.69
2023-03-12T12:37:16.862Z,100357.13
2023-03-12T12:40:29.565Z,100343.59
2023-03-12T12:43:35.436Z,100341.81
2023-03-12T12:46:40.209Z,100348.25
2023-03-12T12:50:00.241Z,100360.53
2023-03-12T12:53:31.176Z,100350.97
2023-03-12T12:56:34.564Z,100340.72
2023-03-12T12:59:57.722Z,100355.66
2023-03-12T13:03:00.679Z,100356.50
2023-03-12T13:06:05.064Z,100353.97
2023-03-12T13:09:15.859Z,100353.72
2023-03-12T13:12:44.491Z,100357.88
2023-03-12T13:15:47.295Z,100348.03
2023-03-12T13:19:08.391Z,100349.94
2023-03-12T13:22:10.602Z,100350.25
2023-03-12T13:25:38.065Z,100358.03
2023-03-12T13:28:56.978Z,100354.59
2023-03-12T13:32:02.743Z,100360.69
2023-03-12T13:35:36.870Z,100361.34
2023-03-12T13:38:55.055Z,100373.44
2023-03-12T13:41:58.680Z,100373.53
2023-03-12T13:45:25.603Z,100377.03
2023-03-12T13:48:28.253Z,100369.38
2023-03-12T13:51:30.487Z,100368.75
2023-03-12T13:54:34.380Z,100367.50
2023-03-12T13:57:41.680Z,100369.19
2023-03-12T14:00:48.440Z,100373.06
2023-03-12T14:03:55.228Z,100369.47
2023-03-12T14:07:17.779Z,100370.44
2023-03-12T14:10:27.261Z,100375.09
2023-03-12T14:13:29.622Z,100367.78
2023-03-12T14:16:46.182Z,100375.72
2023-03-12T14:19:53.022Z,100365.72
2023-03-12T14:23:01.297Z,100375.19
2023-03-12T14:26:04.738Z,100378.59
2023-03-12T14:29:10.344Z,100375.53
2023-03-12T14:32:20.376Z,100383.28
2023-03-12T14:35:30.413Z,100377.03
2023-03-12T14:38:33.682Z,100378.88
2023-03-12T14:41:37.145Z,100375.28
2023-03-12T14:44:40.732Z,100375.19
2023-03-12T14:47:54.490Z,100380.38
2023-03-12T14:50:57.689Z,100379.34
2023-03-12T14:54:02.627Z,100380.28
2023-03-12T14:57:04.972Z,100379.91
2023-03-12T15:00:16.509Z,100378.63
2023-03-12T15:03:18.883Z,100367.66
2023-03-12T15:06:34.341Z,100373.06
2023-03-12T15:09:36.964Z,100387.50
2023-03-12T15:12:39.439Z,100384.09
2023-03-12T15:15:44.525Z,100398.97
2023-03-12T15:18:48.842Z,100386.66
2023-03-12T15:21:51.463Z,100400.84
2023-03-12T15:24:54.111Z,100401.03
2023-03-12T15:28:04.293Z,100400.41
2023-03-12T15:31:15.558Z,100402.47
2023-03-12T15:34:38.741Z,100400.41
2023-03-12T15:37:42.923Z,100405.78
2023-03-12T15:40:50.205Z,100412.28
2023-03-12T15:43:55.532Z,100410.78
2023-03-12T15:47:04.993Z,100410.19
2023-03-12T15:50:18.438Z,100413.59
2023-03-12T15:53:20.624Z,100422.84
2023-03-12T15:56:23.796Z,100424.34
2023-03-12T15:59:27.845Z,100432.28
2023-03-12T16:02:38.844Z,100428.31
2023-03-12T16:05:41.260Z,100430.09
2023-03-12T16:08:49.741Z,100429.25
2023-03-12T16:11:53.824Z,100432.84
2023-03-12T16:14:56.140Z,100429.59
2023-03-12T16:17:58.451Z,100434.25
2023-03-12T16:21:00.741Z,100438.69
2023-03-12T16:24:03.078Z,100437.31
2023-03-12T16:27:07.059Z,100439.56
2023-03-12T16:30:22.896Z,100445.03
2023-03-12T16:33:25.343Z,100448.78
2023-03-12T16:36:27.711Z,100447.28
2023-03-12T16:39:33.151Z,100458.78
2023-03-12T16:42:35.852Z,100461.97
2023-03-12T16:45:43.491Z,100459.44
2023-03-12T16:48:48.976Z,100463.38
2023-03-12T16:51:51.336Z,100474.97
2023-03-12T16:54:53.727Z,100467.53
2023-03-12T16:57:58.236Z,100476.66
2023-03-12T17:01:00.605Z,100485.84
2023-03-12T17:04:04.964Z,100491.47
2023-03-12T17:07:08.041Z,100496.75
2023-03-12T17:10:11.454Z,100489.91
2023-03-12T17:13:29.254Z,100496.22
2023-03-12T17:16:31.546Z,100500.84
2023-03-12T17:19:33.847Z,100508.13
2023-03-12T17:22:39.034Z,100499.72
2023-03-12T17:25:42.995Z,100503.50
2023-03-12T17:28:45.577Z,100497.53
2023-03-12T17:31:47.899Z,100489.16
2023-03-12T17:34:57.887Z,100501.03
2023-03-12T17:38:00.215Z,100499.50
2023-03-12T17:41:09.362Z,100501.69
2023-03-12T17:44:19.084Z,100497.00
2023-03-12T17:47:21.331Z,100503.06
2023-03-12T17:50:23.792Z,100505.06
2023-03-12T17:53:26.091Z,100494.94
2023-03-12T17:56:28.560Z,100496.88
2023-03-12T17:59:30.913Z,100496.88
2023-03-12T18:02:33.121Z,100493.47
2023-03-12T18:05:39.960Z,100497.19
2023-03-12T18:08:42.313Z,100494.84
2023-03-12T18:11:44.566Z,100496.13
2023-03-12T18:14:46.876Z,100499.84
2023-03-12T18:17:52.400Z,100493.97
2023-03-12T18:20:54.806Z,100503.72
2023-03-12T18:23:59.446Z,100505.72
2023-03-12T18:27:04.458Z,100506.19
2023-03-12T18:30:13.920Z,100525.56
2023-03-12T18:33:16.260Z,100516.28
2023-03-12T18:36:18.386Z,100528.16
2023-03-12T18:39:20.556Z,100530.47
2023-03-12T18:42:22.810Z,100524.84
2023-03-12T18:45:25.301Z,100529.91
2023-03-12T18:48:27.737Z,100539.66
2023-03-12T18:51:30.028Z,100545.09
2023-03-12T18:54:33.702Z,100538.19
2023-03-12T18:57:36.108Z,100542.31
2023-03-12T19:00:38.402Z,100542.59
2023-03-12T19:03:40.727Z,100540.00
2023-03-12T19:06:50.687Z,100533.06
2023-03-12T19:09:53.314Z,100538.59
2023-03-12T19:12:55.688Z,100537.63
2023-03-12T19:15:59.938Z,100529.00
2023-03-12T19:19:02.294Z,100531.47
2023-03-12T19:22:04.782Z,100530.91
2023-03-12T19:25:07.254Z,100527.47
2023-03-12T19:28:09.667Z,100538.25
2023-03-12T19:31:15.349Z,100543.50
2023-03-12T19:34:17.909Z,100553.47
2023-03-12T19:37:20.638Z,100552.91
2023-03-12T19:40:22.915Z,100560.84
2023-03-12T19:43:25.829Z,100566.03
2023-03-12T19:46:28.452Z,100583.50
2023-03-12T19:49:30.752Z,100591.19
2023-03-12T19:52:33.052Z,100591.19
2023-03-12T19:55:35.302Z,100587.81
2023-03-12T19:58:37.601Z,100585.81
2023-03-12T20:01:41.417Z,100575.63
2023-03-12T20:04:43.739Z,100587.06
2023-03-12T20:07:46.806Z,100585.41
2023-03-12T20:10:49.571Z,100580.84
2023-03-12T20:13:52.148Z,100576.84
2023-03-12T20:16:54.464Z,100582.38
2023-03-12T20:19:56.866Z,100580.66
2023-03-12T20:22:59.120Z,100579.97
2023-03-12T20:26:01.384Z,100579.50
2023-03-12T20:29:04.565Z,100581.53
2023-03-12T20:32:06.905Z,100597.78
2023-03-12T20:35:09.666Z,100605.50
2023-03-12T20:38:12.221Z,100595.38
2023-03-12T20:41:14.975Z,100589.38
2023-03-12T20:44:18.436Z,100573.03
2023-03-12T20:47:20.683Z,100575.41
2023-03-12T20:50:22.967Z,100579.53
2023-03-12T20:53:27.749Z,100581.19
2023-03-12T20:56:29.979Z,100596.69
2023-03-12T20:59:32.297Z,100602.81
2023-03-12T21:02:34.781Z,100605.31
2023-03-12T21:05:37.048Z,100608.75
2023-03-12T21:08:39.342Z,100605.88
2023-03-12T21:11:42.100Z,100611.13
2023-03-12T21:14:44.475Z,100607.47
2023-03-12T21:17:47.004Z,100617.13
2023-03-12T21:20:49.229Z,100609.41
2023-03-12T21:23:51.795Z,100597.66
2023-03-12T21:26:54.289Z,100601.09
2023-03-12T21:29:56.689Z,100599.28
2023-03-12T21:32:58.931Z,100598.84
2023-03-12T21:36:07.664Z,100596.59
2023-03-12T21:39:09.891Z,100595.38
2023-03-12T21:42:12.129Z,100602.97
2023-03-12T21:45:14.592Z,100600.41
2023-03-12T21:48:16.806Z,100599.59
2023-03-12T21:51:19.679Z,100597.84
2023-03-12T21:54:21.921Z,100594.19
2023-03-12T21:57:24.180Z,100589.16
2023-03-12T22:00:26.531Z,100605.19
2023-03-12T22:03:29.100Z,100599.19
2023-03-12T22:06:31.642Z,100594.41
2023-03-12T22:09:33.996Z,100581.69
2023-03-12T22:12:36.242Z,100589.22
2023-03-12T22:15:38.606Z,100588.16
2023-03-12T22:18:43.371Z,100585.47
2023-03-12T22:21:45.685Z,100591.59
2023-03-12T22:24:47.966Z,100598.31
2023-03-12T22:27:50.222Z,100581.34
2023-03-12T22:31:00.900Z,100581.16
2023-03-12T22:34:03.339Z,100576.94
2023-03-12T22:37:05.643Z,100568.47
2023-03-12T22:40:09.860Z,100581.69
2023-03-12T22:43:12.150Z,100580.69
2023-03-12T22:46:16.533Z,100589.63
2023-03-12T22:49:18.996Z,100584.03
2023-03-12T22:52:21.267Z,100581.41
2023-03-12T22:55:23.669Z,100576.94
2023-03-12T22:58:26.585Z,100585.41
2023-03-12T23:01:28.967Z,100576.53
2023-03-12T23:04:31.423Z,100586.53
2023-03-12T23:07:34.950Z,100598.66
2023-03-12T23:10:37.220Z,100595.50
2023-03-12T23:13:41.524Z,100602.97
2023-03-12T23:16:43.878Z,100612.53
2023-03-12T23:19:46.193Z,100616.94
2023-03-12T23:22:48.432Z,100619.56
2023-03-12T23:25:55.327Z,100627.31
2023-03-12T23:28:59.013Z,100632.31
2023-03-12T23:32:01.509Z,100642.59
2023-03-12T23:35:03.902Z,100633.59
2023-03-12T23:38:06.895Z,100642.16
2023-03-12T23:41:12.972Z,100640.03
2023-03-12T23:44:15.270Z,100639.91
2023-03-12T23:47:17.505Z,100646.78
2023-03-12T23:50:19.824Z,100641.38
2023-03-12T23:53:22.200Z,100645.00
2023-03-12T23:56:29.188Z,100642.94
2023-03-12T23:59:31.466Z,100642.34
